Latest Weather Observations for Busselton Jetty

IDW60801

Issued at 10:33 am WST Tuesday 22 September 2020 (issued every 10 minutes, with the page automatically refreshed every 10 minutes)

About weather observations | Map of weather stations | Latest weather observations for WA | Other Formats
Station Details ID: 009937 Name: BUSSELTON JETTY Lat: -33.63 Lon: 115.34 Height: 3.0 m
Data from the previous 72 hours. | See also: Recent months at Busselton Jetty
Date/Time
WST
Temp
°C
App
Temp
°C
Dew
Point
°C
Rel
Hum
%
Delta-T
°C
Wind Press
QNH
hPa
Press
MSL
hPa
Rain since
9am
mm
Dir  Spd
km/h
Gust
km/h
Spd
kts
Gust
kts
22/10:30am - - - - - N 11 11 6 6 - - -
22/10:00am - - - - - S 4 7 2 4 - - -
22/09:30am - - - - - S 4 7 2 4 - - -
22/09:00am - - - - - CALM 0 0 0 0 - - -
22/08:30am - - - - - CALM 0 0 0 0 - - -
22/08:00am - - - - - CALM 0 0 0 0 - - -
22/07:30am - - - - - CALM 0 0 0 0 - - -
22/07:00am - - - - - CALM 0 0 0 0 - - -
22/06:30am - - - - - CALM 0 0 0 0 - - -
22/06:00am - - - - - CALM 0 0 0 0 - - -
22/05:30am - - - - - S 6 7 3 4 - - -
22/05:00am - - - - - S 2 6 1 3 - - -
22/04:30am - - - - - S 6 7 3 4 - - -
22/04:00am - - - - - S 9 9 5 5 - - -
22/03:30am - - - - - SSW 7 9 4 5 - - -
22/03:00am - - - - - SSW 9 9 5 5 - - -
22/02:30am - - - - - SW 9 9 5 5 - - -
22/02:00am - - - - - SSW 7 9 4 5 - - -
22/01:30am - - - - - SW 11 15 6 8 - - -
22/01:00am - - - - - SSW 13 15 7 8 - - -
22/12:30am - - - - - WSW 15 17 8 9 - - -
22/12:00am - - - - - SW 13 20 7 11 - - -
 
Date/Time
WST
Temp
°C
App
Temp
°C
Dew
Point
°C
Rel
Hum
%
Delta-T
°C
Wind Press
QNH
hPa
Press
MSL
hPa
Rain since
9am
mm
Dir  Spd
km/h
Gust
km/h
Spd
kts
Gust
kts
21/11:30pm - - - - - S 11 13 6 7 - - -
21/11:00pm - - - - - SSW 7 9 4 5 - - -
21/10:30pm - - - - - SW 13 15 7 8 - - -
21/10:00pm - - - - - SW 20 26 11 14 - - -
21/09:30pm - - - - - SW 30 35 16 19 - - -
21/09:00pm - - - - - WSW 28 33 15 18 - - -
21/08:30pm - - - - - W 28 32 15 17 - - -
21/08:00pm - - - - - W 28 32 15 17 - - -
21/07:30pm - - - - - W 24 28 13 15 - - -
21/07:00pm - - - - - WNW 24 30 13 16 - - -
21/06:30pm - - - - - W 28 32 15 17 - - -
21/06:00pm - - - - - WNW 35 44 19 24 - - -
21/05:30pm - - - - - W 28 32 15 17 - - -
21/05:00pm - - - - - W 30 35 16 19 - - -
21/04:30pm - - - - - W 22 33 12 18 - - -
21/04:00pm - - - - - WSW 22 33 12 18 - - -
21/03:30pm - - - - - W 28 37 15 20 - - -
21/03:00pm - - - - - W 26 32 14 17 - - -
21/02:30pm - - - - - W 26 32 14 17 - - -
21/02:00pm - - - - - W 28 32 15 17 - - -
21/01:30pm - - - - - W 22 32 12 17 - - -
21/01:00pm - - - - - WNW 24 33 13 18 - - -
21/12:30pm - - - - - WNW 15 19 8 10 - - -
21/12:00pm - - - - - W 24 28 13 15 - - -
21/11:30am - - - - - WNW 20 26 11 14 - - -
21/11:00am - - - - - WSW 20 26 11 14 - - -
21/10:30am - - - - - SW 17 22 9 12 - - -
21/10:00am - - - - - SW 20 30 11 16 - - -
21/09:30am - - - - - SW 13 19 7 10 - - -
21/09:00am - - - - - SW 11 19 6 10 - - -
21/08:30am - - - - - SSE 7 11 4 6 - - -
21/08:00am - - - - - SSW 7 9 4 5 - - -
21/07:30am - - - - - SW 9 11 5 6 - - -
21/07:00am - - - - - SSW 11 13 6 7 - - -
21/06:30am - - - - - SSW 15 17 8 9 - - -
21/06:00am - - - - - SW 20 26 11 14 - - -
21/05:30am - - - - - SW 28 33 15 18 - - -
21/05:00am - - - - - SW 24 30 13 16 - - -
21/04:30am - - - - - SW 20 32 11 17 - - -
21/04:00am - - - - - SSW 15 19 8 10 - - -
21/03:30am - - - - - SW 26 32 14 17 - - -
21/03:00am - - - - - SW 28 33 15 18 - - -
21/02:41am - - - - - SW 20 35 11 19 - - -
21/02:30am - - - - - SW 13 15 7 8 - - -
21/02:00am - - - - - SSW 13 15 7 8 - - -
21/01:30am - - - - - SSW 19 24 10 13 - - -
21/01:00am - - - - - SW 15 26 8 14 - - -
21/12:30am - - - - - SW 22 28 12 15 - - -
21/12:00am - - - - - SW 30 35 16 19 - - -
 
Date/Time
WST
Temp
°C
App
Temp
°C
Dew
Point
°C
Rel
Hum
%
Delta-T
°C
Wind Press
QNH
hPa
Press
MSL
hPa
Rain since
9am
mm
Dir  Spd
km/h
Gust
km/h
Spd
kts
Gust
kts
20/11:30pm - - - - - WSW 24 37 13 20 - - -
20/11:00pm - - - - - SW 17 20 9 11 - - -
20/10:30pm - - - - - SW 26 32 14 17 - - -
20/10:00pm - - - - - SW 26 35 14 19 - - -
20/09:30pm - - - - - SW 20 26 11 14 - - -
20/09:00pm - - - - - SSW 19 26 10 14 - - -
20/08:30pm - - - - - SSW 24 30 13 16 - - -
20/08:00pm - - - - - SW 26 35 14 19 - - -
20/07:30pm - - - - - SSW 24 32 13 17 - - -
20/07:00pm - - - - - SW 35 41 19 22 - - -
20/06:30pm - - - - - WSW 35 50 19 27 - - -
20/06:00pm - - - - - SW 35 43 19 23 - - -
20/05:34pm - - - - - SW 30 48 16 26 - - -
20/05:30pm - - - - - SW 30 35 16 19 - - -
20/05:00pm - - - - - WSW 37 52 20 28 - - -
20/04:30pm - - - - - WSW 41 50 22 27 - - -
20/04:00pm - - - - - WSW 35 43 19 23 - - -
20/03:30pm - - - - - SW 43 56 23 30 - - -
20/03:00pm - - - - - SW 44 59 24 32 - - -
20/02:44pm - - - - - WSW 43 61 23 33 - - -
20/02:30pm - - - - - SW 39 50 21 27 - - -
20/02:23pm - - - - - SW 39 48 21 26 - - -
20/02:00pm - - - - - WSW 48 69 26 37 - - -
20/01:35pm - - - - - WSW 54 72 29 39 - - -
20/01:30pm - - - - - WSW 52 69 28 37 - - -
20/01:00pm - - - - - WSW 56 70 30 38 - - -
20/12:34pm - - - - - WSW 52 70 28 38 - - -
20/12:30pm - - - - - WSW 56 70 30 38 - - -
20/12:03pm - - - - - SW 43 63 23 34 - - -
20/12:00pm - - - - - SW 41 56 22 30 - - -
20/11:56am - - - - - SW 41 56 22 30 - - -
20/11:41am - - - - - SW 56 74 30 40 - - -
20/11:30am - - - - - SW 56 70 30 38 - - -
20/11:00am - - - - - SW 57 78 31 42 - - -
20/10:31am - - - - - WSW 56 74 30 40 - - -
20/10:30am - - - - - WSW 56 72 30 39 - - -
20/10:27am - - - - - SW 52 70 28 38 - - -
20/10:00am - - - - - WSW 52 63 28 34 - - -
20/09:43am - - - - - WSW 54 74 29 40 - - -
20/09:30am - - - - - WSW 52 61 28 33 - - -
20/09:18am - - - - - WSW 48 67 26 36 - - -
20/09:00am - - - - - WSW 50 65 27 35 - - -
20/08:30am - - - - - WSW 43 54 23 29 - - -
20/08:00am - - - - - WSW 48 67 26 36 - - -
20/07:57am - - - - - SW 43 67 23 36 - - -
20/07:30am - - - - - SW 41 56 22 30 - - -
20/07:08am - - - - - SW 39 57 21 31 - - -
20/07:00am - - - - - SW 41 50 22 27 - - -
20/06:30am - - - - - SW 41 59 22 32 - - -
20/06:27am - - - - - SW 41 59 22 32 - - -
20/06:00am - - - - - SW 44 57 24 31 - - -
20/05:54am - - - - - SW 39 57 21 31 - - -
20/05:30am - - - - - WSW 39 48 21 26 - - -
20/05:00am - - - - - WSW 39 50 21 27 - - -
20/04:35am - - - - - SW 32 48 17 26 - - -
20/04:30am - - - - - SW 32 39 17 21 - - -
20/04:00am - - - - - WSW 37 48 20 26 - - -
20/03:39am - - - - - WSW 43 61 23 33 - - -
20/03:30am - - - - - SW 46 59 25 32 - - -
20/03:15am - - - - - WSW 43 61 23 33 - - -
20/03:00am - - - - - WSW 39 50 21 27 - - -
20/02:30am - - - - - WSW 35 46 19 25 - - -
20/02:00am - - - - - WSW 43 52 23 28 - - -
20/01:37am - - - - - WSW 48 67 26 36 - - -
20/01:30am - - - - - WSW 50 67 27 36 - - -
20/01:00am - - - - - WSW 44 72 24 39 - - -
20/12:30am - - - - - SW 46 72 25 39 - - -
20/12:19am - - - - - WSW 43 65 23 35 - - -
20/12:00am - - - - - WSW 43 52 23 28 - - -
 
Date/Time
WST
Temp
°C
App
Temp
°C
Dew
Point
°C
Rel
Hum
%
Delta-T
°C
Wind Press
QNH
hPa
Press
MSL
hPa
Rain since
9am
mm
Dir  Spd
km/h
Gust
km/h
Spd
kts
Gust
kts
19/11:30pm - - - - - WSW 35 44 19 24 - - -
19/11:00pm - - - - - W 54 72 29 39 - - -
19/10:52pm - - - - - WSW 43 70 23 38 - - -
19/10:50pm - - - - - WSW 37 57 20 31 - - -
19/10:30pm - - - - - W 37 44 20 24 - - -
19/10:00pm - - - - - W 44 56 24 30 - - -
19/09:40pm - - - - - W 50 72 27 39 - - -
19/09:30pm - - - - - W 54 69 29 37 - - -
19/09:17pm - - - - - W 50 74 27 40 - - -
19/09:00pm - - - - - W 46 54 25 29 - - -
19/08:48pm - - - - - WSW 43 61 23 33 - - -
19/08:45pm - - - - - WSW 37 52 20 28 - - -
19/08:30pm - - - - - WSW 28 35 15 19 - - -
19/08:01pm - - - - - SW 46 63 25 34 - - -
19/08:00pm - - - - - SW 46 63 25 34 - - -
19/07:55pm - - - - - WSW 41 63 22 34 - - -
19/07:52pm - - - - - W 35 61 19 33 - - -
19/07:30pm - - - - - WSW 32 37 17 20 - - -
19/07:10pm - - - - - WSW 41 50 22 27 - - -
19/07:00pm - - - - - WSW 56 78 30 42 - - -
19/06:58pm - - - - - WSW 56 78 30 42 - - -
19/06:53pm - - - - - WSW 44 72 24 39 - - -
19/06:52pm - - - - - WSW 41 70 22 38 - - -
19/06:50pm - - - - - WSW 37 52 20 28 - - -
19/06:30pm - - - - - WSW 30 37 16 20 - - -
19/06:00pm - - - - - WSW 33 67 18 36 - - -
19/05:59pm - - - - - WSW 30 57 16 31 - - -
19/05:30pm - - - - - WSW 39 54 21 29 - - -
19/05:25pm - - - - - WSW 46 57 25 31 - - -
19/05:16pm - - - - - W 57 78 31 42 - - -
19/05:11pm - - - - - W 48 78 26 42 - - -
19/05:09pm - - - - - W 43 63 23 34 - - -
19/05:00pm - - - - - WSW 41 48 22 26 - - -
19/04:36pm - - - - - SW 48 67 26 36 - - -
19/04:30pm - - - - - SW 54 67 29 36 - - -
19/04:00pm - - - - - SW 39 48 21 26 - - -
19/03:30pm - - - - - WSW 44 52 24 28 - - -
19/03:00pm - - - - - WSW 43 54 23 29 - - -
19/02:30pm - - - - - WSW 48 74 26 40 - - -
19/02:26pm - - - - - WSW 46 74 25 40 - - -
19/02:23pm - - - - - W 41 74 22 40 - - -
19/02:22pm - - - - - W 37 74 20 40 - - -
19/02:00pm - - - - - W 33 41 18 22 - - -
19/01:30pm - - - - - W 54 72 29 39 - - -
19/01:29pm - - - - - W 54 72 29 39 - - -
19/01:00pm - - - - - W 56 67 30 36 - - -
19/12:50pm - - - - - W 50 69 27 37 - - -
19/12:30pm - - - - - W 57 69 31 37 - - -
19/12:00pm - - - - - W 54 63 29 34 - - -
19/11:30am - - - - - W 44 56 24 30 - - -
19/11:00am - - - - - W 50 61 27 33 - - -

Other formats

Comma delimited format used in spreadsheet applications
http://www.bom.gov.au/fwo/IDW60801/IDW60801.95602.axf

JavaScript Object Notation format (JSON) in row-major order
http://www.bom.gov.au/fwo/IDW60801/IDW60801.95602.json

Data quality

Most of these data are generated automatically and are frequently updated. Quality checks on data are not normally performed. It is possible for incorrect values to appear. Refer to information at About Latest Weather Observations and please check the disclaimer before using these data.